Time;durP1;ratioP1;P1;durP2;ratioP2;P2;SDS_P1;SDS_P2;PMS_P1;PMS_P2;Temp;Humidity;BMP_temperature;BMP_pressure;BME280_temperature;BME280_humidity;BME280_pressure;Samples;Min_cycle;Max_cycle;Signal;HPM_P1;HPM_P2
2022/10/16 00:00:53;;;;;;;;;;;;;;;21.28;50.65;100315.31;7290148;19;154056;-53
2022/10/16 00:03:19;;;;;;;;;;;;;;;21.28;50.47;100308.84;7283096;19;155290;-50
2022/10/16 00:05:46;;;;;;;;;;;;;;;21.27;50.53;100318.44;7282474;19;153424;-50
2022/10/16 00:08:13;;;;;;;;;;;;;;;21.25;50.46;100317.97;7280632;19;152666;-50
2022/10/16 00:10:40;;;;;;;;;;;;;;;21.25;50.28;100326.38;7280419;19;152564;-50
2022/10/16 00:13:07;;;;;;;;;;;;;;;21.23;50.40;100317.44;7282154;19;154112;-51
2022/10/16 00:15:39;;;;;;;;;;;;;;;21.24;50.43;100313.50;7282888;19;151951;-51
2022/10/16 00:18:05;;;;;;;;;;;;;;;21.23;50.67;100323.06;7283635;19;153150;-51
2022/10/16 00:20:36;;;;;;;;;;;;;;;21.21;50.92;100325.41;7281216;19;153583;-51
2022/10/16 00:23:04;;;;;;;;;;;;;;;21.20;50.63;100327.38;7286067;19;153596;-51
2022/10/16 00:25:32;;;;;;;;;;;;;;;21.19;50.77;100331.34;7282107;19;153562;-51
2022/10/16 00:28:00;;;;;;;;;;;;;;;21.18;50.75;100334.47;7279165;19;152758;-51
2022/10/16 00:30:27;;;;;;;;;;;;;;;21.17;50.72;100338.41;7281645;19;152481;-52
2022/10/16 00:32:54;;;;;;;;;;;;;;;21.16;50.86;100331.16;7280657;19;154017;-52
2022/10/16 00:35:21;;;;;;;;;;;;;;;21.14;50.77;100334.28;7282061;19;151901;-52
2022/10/16 00:37:48;;;;;;;;;;;;;;;21.13;51.08;100335.44;7280495;19;153076;-52
2022/10/16 00:40:14;;;;;;;;;;;;;;;21.11;51.12;100337.72;7280067;19;153802;-52
2022/10/16 00:42:41;;;;;;;;;;;;;;;21.11;51.03;100340.53;7281955;19;152350;-52
2022/10/16 00:45:08;;;;;;;;;;;;;;;21.10;51.45;100340.84;7289864;19;152688;-52
2022/10/16 00:47:40;;;;;;;;;;;;;;;21.09;51.43;100339.19;7280842;19;152226;-51
2022/10/16 00:50:18;;;;;;;;;;;;;;;21.08;51.64;100337.53;7280493;19;153145;-50
2022/10/16 00:52:46;;;;;;;;;;;;;;;21.08;51.72;100334.72;7279538;19;154171;-51
2022/10/16 00:55:13;;;;;;;;;;;;;;;21.08;51.45;100337.53;7281102;19;152132;-51
2022/10/16 00:57:41;;;;;;;;;;;;;;;21.06;51.89;100335.06;7282048;19;153445;-51
2022/10/16 01:00:09;;;;;;;;;;;;;;;21.04;51.94;100345.78;7280304;19;154324;-51
2022/10/16 01:02:36;;;;;;;;;;;;;;;21.05;51.78;100338.19;7280828;19;151963;-51
2022/10/16 01:05:04;;;;;;;;;;;;;;;21.04;51.65;100347.78;7281330;19;153382;-51
2022/10/16 01:07:30;;;;;;;;;;;;;;;21.02;51.85;100347.28;7287532;19;152035;-52
2022/10/16 01:10:04;;;;;;;;;;;;;;;21.02;51.66;100352.91;7279126;19;152785;-52
2022/10/16 01:12:30;;;;;;;;;;;;;;;21.01;51.74;100351.25;7280109;19;154355;-52
2022/10/16 01:15:10;;;;;;;;;;;;;;;21.01;51.95;100360.50;7286473;19;151786;-52
2022/10/16 01:17:41;;;;;;;;;;;;;;;20.99;51.75;100370.38;7285380;19;153330;-52
2022/10/16 01:20:11;;;;;;;;;;;;;;;20.99;52.08;100368.41;7286203;19;152369;-52
2022/10/16 01:22:56;;;;;;;;;;;;;;;20.99;51.83;100374.03;7286980;19;152615;-51
2022/10/16 01:25:30;;;;;;;;;;;;;;;20.96;51.94;100365.44;7288528;19;153597;-51
2022/10/16 01:27:57;;;;;;;;;;;;;;;20.97;52.18;100367.09;7293447;19;154078;-51
2022/10/16 01:30:26;;;;;;;;;;;;;;;20.95;52.08;100372.19;7286971;19;153456;-51
2022/10/16 01:32:55;;;;;;;;;;;;;;;20.93;52.21;100369.75;7284502;19;153599;-51
2022/10/16 01:35:28;;;;;;;;;;;;;;;20.92;52.45;100368.06;7287950;19;154085;-51
2022/10/16 01:37:55;;;;;;;;;;;;;;;20.92;52.42;100379.31;7285589;19;152845;-51
2022/10/16 01:40:23;;;;;;;;;;;;;;;20.91;52.15;100382.44;7286618;19;154520;-51
2022/10/16 01:42:52;;;;;;;;;;;;;;;20.91;52.37;100388.88;7287415;19;151681;-51
2022/10/16 01:45:20;;;;;;;;;;;;;;;20.89;52.18;100382.78;7285549;19;153365;-51
2022/10/16 01:47:47;;;;;;;;;;;;;;;20.88;52.15;100383.09;7285639;19;153365;-51
2022/10/16 01:50:15;;;;;;;;;;;;;;;20.88;52.14;100383.09;7292621;19;151759;-51
2022/10/16 01:52:44;;;;;;;;;;;;;;;20.87;52.13;100390.69;7285555;19;153603;-51
2022/10/16 01:55:13;;;;;;;;;;;;;;;20.86;52.19;100384.22;7287619;19;152197;-51
2022/10/16 01:57:42;;;;;;;;;;;;;;;20.88;52.37;100380.28;7286525;19;153469;-51
2022/10/16 02:00:10;;;;;;;;;;;;;;;20.86;52.21;100384.22;7286369;19;153843;-51
2022/10/16 02:02:38;;;;;;;;;;;;;;;20.86;52.25;100384.22;7287483;19;152126;-52
2022/10/16 02:05:10;;;;;;;;;;;;;;;20.86;52.20;100392.66;7286729;19;153305;-52
2022/10/16 02:07:37;;;;;;;;;;;;;;;20.85;52.30;100382.56;7286214;19;154338;-52
2022/10/16 02:10:04;;;;;;;;;;;;;;;20.83;52.54;100392.50;7285058;19;152768;-52
2022/10/16 02:12:32;;;;;;;;;;;;;;;20.83;52.60;100398.09;7292043;19;152293;-52
2022/10/16 02:14:59;;;;;;;;;;;;;;;20.81;52.41;100398.41;7286207;19;152507;-52
2022/10/16 02:17:27;;;;;;;;;;;;;;;20.81;52.65;100398.41;7283866;19;153800;-52
2022/10/16 02:19:55;;;;;;;;;;;;;;;20.81;52.51;100411.63;7284826;19;153447;-52
2022/10/16 02:22:22;;;;;;;;;;;;;;;20.81;52.39;100408.81;7286696;19;152134;-52
2022/10/16 02:24:53;;;;;;;;;;;;;;;20.78;52.62;100415.91;7285146;19;152477;-52
2022/10/16 02:27:41;;;;;;;;;;;;;;;20.78;52.80;100415.09;7284349;19;153351;-52
2022/10/16 02:30:08;;;;;;;;;;;;;;;20.77;52.51;100414.25;7282207;19;152224;-52
2022/10/16 02:32:37;;;;;;;;;;;;;;;20.78;52.68;100413.13;7285966;19;153960;-52
2022/10/16 02:35:04;;;;;;;;;;;;;;;20.77;52.72;100408.63;7290203;19;154126;-52
2022/10/16 02:37:31;;;;;;;;;;;;;;;20.76;52.92;100415.41;7286729;19;154159;-51
2022/10/16 02:39:58;;;;;;;;;;;;;;;20.76;52.87;100421.00;7280899;19;153610;-51
2022/10/16 02:42:38;;;;;;;;;;;;;;;20.76;52.69;100415.41;7286133;19;151924;-51
2022/10/16 02:45:05;;;;;;;;;;;;;;;20.75;52.49;100427.81;7285782;19;152684;-52
2022/10/16 02:47:32;;;;;;;;;;;;;;;20.74;52.98;100428.13;7284520;19;153957;-52
2022/10/16 02:49:59;;;;;;;;;;;;;;;20.71;52.81;100429.59;7284457;19;152742;-52
2022/10/16 02:52:25;;;;;;;;;;;;;;;20.71;52.80;100440.00;7284386;19;153465;-52
2022/10/16 02:54:52;;;;;;;;;;;;;;;20.70;52.87;100438.34;7283451;19;154578;-52
2022/10/16 02:57:19;;;;;;;;;;;;;;;20.68;53.02;100441.47;7292515;19;152511;-51
2022/10/16 02:59:45;;;;;;;;;;;;;;;20.66;52.84;100448.56;7283832;19;153327;-52
2022/10/16 03:02:12;;;;;;;;;;;;;;;20.65;53.01;100456.16;7285602;19;152523;-51
2022/10/16 03:04:39;;;;;;;;;;;;;;;20.65;52.74;100444.91;7285539;19;152289;-51
2022/10/16 03:07:05;;;;;;;;;;;;;;;20.65;52.77;100460.94;7284193;19;153367;-52
2022/10/16 03:09:32;;;;;;;;;;;;;;;20.64;52.59;100456.47;7283823;19;151731;-52
2022/10/16 03:11:59;;;;;;;;;;;;;;;20.64;52.46;100462.91;7283113;19;153032;-52
2022/10/16 03:14:25;;;;;;;;;;;;;;;20.62;52.72;100462.41;7284367;19;154022;-52
2022/10/16 03:17:12;;;;;;;;;;;;;;;20.62;52.47;100465.22;7288538;19;152154;-51
2022/10/16 03:19:39;;;;;;;;;;;;;;;20.62;52.32;100468.03;7284262;19;155160;-51
2022/10/16 03:22:06;;;;;;;;;;;;;;;20.64;52.74;100465.72;7284729;19;152445;-51
2022/10/16 03:24:32;;;;;;;;;;;;;;;20.64;52.69;100470.50;7283355;19;152886;-51
2022/10/16 03:26:59;;;;;;;;;;;;;;;20.63;52.85;100480.06;7283525;19;153902;-52
2022/10/16 03:29:26;;;;;;;;;;;;;;;20.60;52.50;100472.28;7284016;19;152409;-52
2022/10/16 03:31:52;;;;;;;;;;;;;;;20.58;52.70;100469.78;7281882;19;153952;-52
2022/10/16 03:34:19;;;;;;;;;;;;;;;20.57;52.58;100476.56;7281125;19;153707;-52
2022/10/16 03:36:46;;;;;;;;;;;;;;;20.56;52.40;100468.47;7282733;19;152253;-52
2022/10/16 03:39:12;;;;;;;;;;;;;;;20.55;52.61;100475.22;7288955;19;152752;-52
2022/10/16 03:41:39;;;;;;;;;;;;;;;20.54;52.52;100477.19;7283436;19;151672;-51
2022/10/16 03:44:06;;;;;;;;;;;;;;;20.53;52.68;100478.38;7285398;19;153000;-52
2022/10/16 03:46:32;;;;;;;;;;;;;;;20.51;52.64;100480.66;7281186;19;153529;-52
2022/10/16 03:48:59;;;;;;;;;;;;;;;20.51;53.02;100479.81;7281616;19;152511;-52
2022/10/16 03:51:25;;;;;;;;;;;;;;;20.51;52.75;100485.44;7280777;19;153352;-52
2022/10/16 03:53:52;;;;;;;;;;;;;;;20.49;52.83;100501.78;7279681;19;152320;-52
2022/10/16 03:56:19;;;;;;;;;;;;;;;20.48;52.51;100502.91;7283853;19;151945;-52
2022/10/16 03:58:46;;;;;;;;;;;;;;;20.46;52.60;100503.22;7278874;19;153402;-52
2022/10/16 04:01:12;;;;;;;;;;;;;;;20.45;52.66;100506.34;7290218;19;154133;-52
2022/10/16 04:03:39;;;;;;;;;;;;;;;20.42;52.58;100508.66;7283099;19;153857;-52
2022/10/16 04:06:06;;;;;;;;;;;;;;;20.42;52.81;100513.44;7281349;19;154800;-52
2022/10/16 04:08:34;;;;;;;;;;;;;;;20.42;52.76;100519.03;7282706;19;153104;-52
2022/10/16 04:11:01;;;;;;;;;;;;;;;20.40;52.57;100522.16;7282791;19;152638;-52
2022/10/16 04:13:28;;;;;;;;;;;;;;;20.39;52.54;100528.13;7280316;19;153487;-52
2022/10/16 04:15:55;;;;;;;;;;;;;;;20.37;52.85;100527.59;7282560;19;151645;-52
2022/10/16 04:18:22;;;;;;;;;;;;;;;20.36;52.41;100532.38;7282713;19;152046;-52
2022/10/16 04:20:48;;;;;;;;;;;;;;;20.34;52.52;100534.69;7280303;19;153436;-52
2022/10/16 04:23:15;;;;;;;;;;;;;;;20.33;52.87;100535.81;7287255;19;152566;-52
2022/10/16 04:25:42;;;;;;;;;;;;;;;20.33;52.88;100540.59;7279413;19;154088;-51
2022/10/16 04:28:08;;;;;;;;;;;;;;;20.32;52.61;100553.78;7283478;19;152234;-51
2022/10/16 04:30:37;;;;;;;;;;;;;;;20.32;52.65;100558.56;7282024;19;153574;-51
2022/10/16 04:33:03;;;;;;;;;;;;;;;20.31;52.77;100559.72;7280317;19;154060;-52
2022/10/16 04:35:30;;;;;;;;;;;;;;;20.30;53.09;100564.50;7282046;19;152385;-52
2022/10/16 04:37:57;;;;;;;;;;;;;;;20.30;52.68;100572.09;7280967;19;153659;-51
2022/10/16 04:40:24;;;;;;;;;;;;;;;20.28;53.02;100577.97;7281095;19;154595;-52
2022/10/16 04:42:51;;;;;;;;;;;;;;;20.29;53.07;100590.03;7282569;19;152028;-51
2022/10/16 04:45:17;;;;;;;;;;;;;;;20.28;53.32;100589.22;7288883;19;153267;-51
2022/10/16 04:47:44;;;;;;;;;;;;;;;20.28;52.96;100603.22;7282967;19;151504;-51
2022/10/16 04:50:10;;;;;;;;;;;;;;;20.26;53.35;100596.28;7288217;19;153593;-52
2022/10/16 04:52:37;;;;;;;;;;;;;;;20.26;53.29;100601.91;7285653;19;152828;-51
2022/10/16 04:55:04;;;;;;;;;;;;;;;20.26;53.20;100604.72;7287841;19;152965;-51
2022/10/16 04:57:40;;;;;;;;;;;;;;;20.25;53.20;100609.47;7286845;19;153366;-51
2022/10/16 05:00:07;;;;;;;;;;;;;;;20.24;53.01;100615.41;7287678;19;153905;-51
2022/10/16 05:02:34;;;;;;;;;;;;;;;20.25;52.97;100619.88;7288631;19;152136;-52
2022/10/16 05:05:01;;;;;;;;;;;;;;;20.24;53.36;100624.66;7287607;19;152966;-52
2022/10/16 05:07:30;;;;;;;;;;;;;;;20.24;53.03;100629.44;7294925;19;154771;-52
2022/10/16 05:10:01;;;;;;;;;;;;;;;20.22;53.40;100643.75;7287837;19;153752;-53
2022/10/16 05:12:28;;;;;;;;;;;;;;;20.21;53.11;100636.50;7284931;19;153377;-52
2022/10/16 05:14:58;;;;;;;;;;;;;;;20.21;53.24;100644.09;7288311;19;152664;-53
2022/10/16 05:17:25;;;;;;;;;;;;;;;20.21;53.27;100644.09;7285099;19;151893;-53
2022/10/16 05:20:10;;;;;;;;;;;;;;;20.20;53.11;100645.22;7286504;19;153933;-52
2022/10/16 05:22:37;;;;;;;;;;;;;;;20.18;53.57;100653.94;7287573;19;152611;-52
2022/10/16 05:25:04;;;;;;;;;;;;;;;20.18;53.45;100658.72;7287179;19;153557;-52
2022/10/16 05:27:40;;;;;;;;;;;;;;;20.17;53.55;100654.28;7293650;19;154584;-52
2022/10/16 05:30:07;;;;;;;;;;;;;;;20.16;53.39;100659.06;7288095;19;153468;-52
2022/10/16 05:32:37;;;;;;;;;;;;;;;20.16;53.46;100670.28;7284814;19;154041;-52
2022/10/16 05:35:05;;;;;;;;;;;;;;;20.16;53.39;100672.25;7286889;19;152312;-52
2022/10/16 05:37:37;;;;;;;;;;;;;;;20.15;53.51;100682.63;7287437;19;152234;-52
2022/10/16 05:40:04;;;;;;;;;;;;;;;20.14;53.17;100680.13;7285603;19;153377;-52
2022/10/16 05:42:31;;;;;;;;;;;;;;;20.14;53.39;100694.16;7285260;19;151916;-52
2022/10/16 05:44:57;;;;;;;;;;;;;;;20.12;53.20;100694.50;7286727;19;152564;-52
2022/10/16 05:47:24;;;;;;;;;;;;;;;20.12;53.32;100700.09;7285595;19;153073;-52
2022/10/16 05:49:51;;;;;;;;;;;;;;;20.11;53.40;100694.78;7292251;19;151886;-52
2022/10/16 05:52:18;;;;;;;;;;;;;;;20.11;53.54;100700.41;7283681;19;152852;-53
2022/10/16 05:54:44;;;;;;;;;;;;;;;20.09;53.43;100703.50;7287024;19;151750;-52
2022/10/16 05:57:11;;;;;;;;;;;;;;;20.08;53.15;100704.63;7284648;19;153690;-52
2022/10/16 05:59:38;;;;;;;;;;;;;;;20.09;53.59;100711.09;7286533;19;153523;-52
2022/10/16 06:02:04;;;;;;;;;;;;;;;20.08;53.20;100707.44;7285261;19;152622;-52
2022/10/16 06:04:31;;;;;;;;;;;;;;;20.08;53.38;100720.66;7286923;19;152777;-52
2022/10/16 06:07:00;;;;;;;;;;;;;;;20.08;53.46;100721.47;7285397;19;154119;-52
2022/10/16 06:09:26;;;;;;;;;;;;;;;20.07;53.25;100725.44;7287065;19;152432;-52
2022/10/16 06:11:53;;;;;;;;;;;;;;;20.07;53.25;100724.59;7292119;19;153233;-52
2022/10/16 06:14:19;;;;;;;;;;;;;;;20.08;53.22;100723.47;7285896;19;153283;-52
2022/10/16 06:16:46;;;;;;;;;;;;;;;20.07;53.63;100721.81;7284443;19;153415;-52
2022/10/16 06:19:14;;;;;;;;;;;;;;;20.08;53.94;100724.28;7284231;19;153552;-53
2022/10/16 06:21:40;;;;;;;;;;;;;;;20.10;54.37;100738.00;7286589;19;152360;-52
2022/10/16 06:24:07;;;;;;;;;;;;;;;20.13;54.54;100728.94;7286054;19;153579;-52
2022/10/16 06:26:34;;;;;;;;;;;;;;;20.16;54.83;100739.56;7284860;19;153933;-52
2022/10/16 06:29:01;;;;;;;;;;;;;;;20.20;54.61;100732.19;7285601;19;151492;-52
2022/10/16 06:31:30;;;;;;;;;;;;;;;20.23;54.73;100735.19;7285727;19;152752;-52
2022/10/16 06:33:57;;;;;;;;;;;;;;;20.28;54.89;100746.31;7291899;19;153430;-52
2022/10/16 06:36:24;;;;;;;;;;;;;;;20.32;55.22;100747.38;7286728;19;153424;-52
2022/10/16 06:38:51;;;;;;;;;;;;;;;20.37;55.37;100747.28;7280269;19;152528;-52
2022/10/16 06:41:19;;;;;;;;;;;;;;;20.41;54.99;100750.28;7286253;19;152733;-52
2022/10/16 06:43:46;;;;;;;;;;;;;;;20.44;55.45;100738.47;7286796;19;152592;-52
2022/10/16 06:46:14;;;;;;;;;;;;;;;20.50;55.63;100745.59;7285520;19;154045;-52
2022/10/16 06:48:41;;;;;;;;;;;;;;;20.53;55.23;100742.19;7285509;19;152696;-52
2022/10/16 06:51:10;;;;;;;;;;;;;;;20.57;55.38;100751.66;7286170;19;152952;-52
2022/10/16 06:53:38;;;;;;;;;;;;;;;20.63;55.51;100758.78;7281266;19;154488;-52
2022/10/16 06:56:27;;;;;;;;;;;;;;;20.68;54.88;100781.16;7293212;19;152156;-52
2022/10/16 06:58:53;;;;;;;;;;;;;;;20.73;55.22;100786.66;7284238;19;153461;-52
2022/10/16 07:01:21;;;;;;;;;;;;;;;20.77;55.34;100784.88;7283444;19;152149;-52
2022/10/16 07:03:48;;;;;;;;;;;;;;;20.82;55.09;100793.19;7283902;19;153200;-52
2022/10/16 07:06:17;;;;;;;;;;;;;;;20.86;54.89;100805.47;7285295;19;153858;-52
2022/10/16 07:08:44;;;;;;;;;;;;;;;20.92;55.29;100809.00;7282834;19;152407;-52
2022/10/16 07:11:12;;;;;;;;;;;;;;;20.98;55.24;100806.91;7284964;19;152656;-52
2022/10/16 07:13:40;;;;;;;;;;;;;;;21.02;55.19;100816.38;7280619;19;153717;-52
2022/10/16 07:16:08;;;;;;;;;;;;;;;21.07;55.19;100816.25;7282167;19;152006;-52
2022/10/16 07:18:35;;;;;;;;;;;;;;;21.11;54.95;100823.75;7289361;19;153418;-52
2022/10/16 07:21:04;;;;;;;;;;;;;;;21.15;54.82;100822.00;7284507;19;152225;-52
2022/10/16 07:23:31;;;;;;;;;;;;;;;21.19;54.74;100827.81;7283892;19;153730;-52
2022/10/16 07:25:58;;;;;;;;;;;;;;;21.23;55.00;100831.63;7283745;19;153450;-52
2022/10/16 07:28:24;;;;;;;;;;;;;;;21.27;54.75;100850.38;7285285;19;152124;-52
2022/10/16 07:30:51;;;;;;;;;;;;;;;21.32;54.61;100845.78;7285990;19;153764;-52
2022/10/16 07:33:18;;;;;;;;;;;;;;;21.34;54.54;100838.69;7281784;19;152472;-52
2022/10/16 07:35:49;;;;;;;;;;;;;;;21.38;54.30;100844.50;7284891;19;152295;-52
2022/10/16 07:38:16;;;;;;;;;;;;;;;21.41;54.20;100839.09;7292246;19;152734;-52
2022/10/16 07:40:43;;;;;;;;;;;;;;;21.45;54.18;100853.31;7283153;19;152399;-52
2022/10/16 07:43:09;;;;;;;;;;;;;;;21.47;54.29;100857.50;7286619;19;153240;-52
2022/10/16 11:04:07;;;;;;;;;;;;;;;19.93;51.69;101008.66;6814750;19;9855421;-57
2022/10/16 11:06:40;;;;;;;;;;;;;;;20.01;51.59;101006.28;7320489;19;151851;-57
2022/10/16 11:09:39;;;;;;;;;;;;;;;20.08;51.59;101006.75;7312522;19;152747;-59
2022/10/16 11:12:09;;;;;;;;;;;;;;;20.15;51.39;101004.38;7314859;19;155336;-58
2022/10/16 11:14:43;;;;;;;;;;;;;;;20.21;50.82;101005.97;7317117;19;153086;-57
2022/10/16 11:17:25;;;;;;;;;;;;;;;20.26;50.88;101015.13;7319312;19;153328;-59
2022/10/16 11:20:04;;;;;;;;;;;;;;;20.33;50.63;101009.16;7315724;19;154670;-58
2022/10/16 11:22:37;;;;;;;;;;;;;;;20.40;50.83;101018.03;7316276;19;152623;-59
2022/10/16 11:25:04;;;;;;;;;;;;;;;20.45;50.58;101003.91;7319877;19;152774;-59
2022/10/16 11:27:39;;;;;;;;;;;;;;;20.51;50.50;101002.69;7317529;19;152075;-59
2022/10/16 11:30:13;;;;;;;;;;;;;;;20.57;50.86;100993.06;7314663;19;153275;-59
2022/10/16 11:32:50;;;;;;;;;;;;;;;20.63;50.61;101002.19;7314055;19;154067;-59
2022/10/16 11:35:40;;;;;;;;;;;;;;;20.68;50.69;100994.53;7314253;19;152693;-59
2022/10/16 11:38:13;;;;;;;;;;;;;;;20.73;50.48;100991.63;7312433;19;154201;-59
2022/10/16 11:40:41;;;;;;;;;;;;;;;20.79;50.46;100984.78;7309776;19;154327;-59
2022/10/16 11:43:20;;;;;;;;;;;;;;;20.82;50.56;100986.97;7316092;19;154116;-59
2022/10/16 11:45:51;;;;;;;;;;;;;;;20.87;50.09;100994.47;7313906;19;152747;-59
2022/10/16 11:48:22;;;;;;;;;;;;;;;20.90;49.86;100998.59;7322402;19;153456;-59
2022/10/16 11:51:05;;;;;;;;;;;;;;;20.94;49.96;100992.06;7313640;19;152901;-59
2022/10/16 11:53:35;;;;;;;;;;;;;;;20.97;49.73;100994.28;7312787;19;154058;-60
2022/10/16 11:56:03;;;;;;;;;;;;;;;21.01;49.72;100992.50;7310828;19;152377;-59
2022/10/16 11:58:41;;;;;;;;;;;;;;;21.03;49.23;100990.19;7316524;19;154164;-59
2022/10/16 12:01:16;;;;;;;;;;;;;;;21.04;48.89;100991.03;7314605;19;153830;-59
2022/10/16 12:03:46;;;;;;;;;;;;;;;21.08;49.18;101000.50;7301410;19;151721;-59
2022/10/16 12:06:20;;;;;;;;;;;;;;;21.09;49.13;100988.13;7285351;19;153287;-59
2022/10/16 12:08:47;;;;;;;;;;;;;;;21.11;48.92;100989.50;7285391;19;152854;-59
2022/10/16 12:11:26;;;;;;;;;;;;;;;21.11;48.43;101003.53;7287514;19;152271;-58
2022/10/16 12:14:07;;;;;;;;;;;;;;;21.14;48.50;101000.13;7281311;19;153718;-58
2022/10/16 12:16:33;;;;;;;;;;;;;;;21.17;48.73;100990.25;7284074;19;152898;-58
2022/10/16 12:19:14;;;;;;;;;;;;;;;21.17;48.62;100991.06;7284982;19;152126;-58
2022/10/16 12:21:45;;;;;;;;;;;;;;;21.20;48.85;100986.81;7285491;19;153166;-58
2022/10/16 12:24:31;;;;;;;;;;;;;;;21.22;48.37;100992.94;7282344;19;153213;-58
2022/10/16 12:26:59;;;;;;;;;;;;;;;21.23;48.18;100989.00;7286269;19;153778;-58
2022/10/16 12:29:31;;;;;;;;;;;;;;;21.25;48.40;100983.91;7283407;19;153230;-57
2022/10/16 12:31:59;;;;;;;;;;;;;;;21.27;48.51;100981.59;7285881;19;152510;-57
2022/10/16 12:34:29;;;;;;;;;;;;;;;21.28;48.04;100983.28;7290993;19;153272;-57
2022/10/16 12:36:56;;;;;;;;;;;;;;;21.30;48.19;100970.56;7285741;19;151969;-57
2022/10/16 12:39:24;;;;;;;;;;;;;;;21.32;48.29;100967.44;7282367;19;153226;-57
2022/10/16 12:42:03;;;;;;;;;;;;;;;21.33;48.09;100960.69;7283379;19;154680;-57
2022/10/16 12:44:35;;;;;;;;;;;;;;;21.35;48.53;100963.19;7282783;19;152230;-57
2022/10/16 12:47:02;;;;;;;;;;;;;;;21.36;48.53;100957.25;7285547;19;152730;-57
2022/10/16 12:49:30;;;;;;;;;;;;;;;21.39;48.50;100964.22;7283583;19;153504;-57
2022/10/16 12:51:57;;;;;;;;;;;;;;;21.38;48.42;100960.59;7286228;19;152916;-57
2022/10/16 12:54:29;;;;;;;;;;;;;;;21.40;48.09;100965.88;7279989;19;152614;-58
2022/10/16 12:57:04;;;;;;;;;;;;;;;21.41;48.25;100957.13;7289042;19;154483;-57
2022/10/16 12:59:50;;;;;;;;;;;;;;;21.42;48.50;100958.81;7283839;19;152806;-57
2022/10/16 13:02:39;;;;;;;;;;;;;;;21.42;48.24;100958.81;7284067;19;154200;-57
2022/10/16 13:05:20;;;;;;;;;;;;;;;21.44;48.46;100952.88;7285459;19;152285;-57
2022/10/16 13:07:47;;;;;;;;;;;;;;;21.45;48.13;100963.78;7279963;19;152770;-58
2022/10/16 13:10:28;;;;;;;;;;;;;;;21.46;48.28;100957.03;7281044;19;153571;-57
2022/10/16 13:12:58;;;;;;;;;;;;;;;21.46;47.98;100951.41;7283875;19;151802;-57
2022/10/16 13:15:35;;;;;;;;;;;;;;;21.48;48.05;100945.47;7281853;19;153475;-57
2022/10/16 13:18:07;;;;;;;;;;;;;;;21.48;47.75;100953.91;7284582;19;151969;-57
2022/10/16 13:20:53;;;;;;;;;;;;;;;21.47;48.14;100964.31;7291407;19;151802;-59
2022/10/16 13:23:38;;;;;;;;;;;;;;;21.48;47.86;100957.56;7284952;19;154236;-58
2022/10/16 13:26:07;;;;;;;;;;;;;;;21.48;47.70;100962.34;7279917;19;153287;-57
2022/10/16 13:28:35;;;;;;;;;;;;;;;21.48;48.11;100960.38;7285177;19;153362;-57
2022/10/16 13:31:03;;;;;;;;;;;;;;;21.50;48.06;100965.66;7282601;19;153256;-57
2022/10/16 13:33:36;;;;;;;;;;;;;;;21.49;47.93;100967.63;7283426;19;151934;-57
2022/10/16 13:36:04;;;;;;;;;;;;;;;21.48;47.96;100970.78;7283349;19;154112;-57
2022/10/16 13:38:32;;;;;;;;;;;;;;;21.47;47.52;100969.94;7284832;19;153045;-57
2022/10/16 13:41:03;;;;;;;;;;;;;;;21.49;47.81;100958.38;7288121;19;152116;-57
2022/10/16 13:43:34;;;;;;;;;;;;;;;21.48;47.78;100946.31;7282608;19;154571;-57
2022/10/16 13:46:02;;;;;;;;;;;;;;;21.48;47.74;100945.47;7283424;19;153082;-57
2022/10/16 13:48:30;;;;;;;;;;;;;;;21.48;48.12;100946.31;7285375;19;152630;-57
2022/10/16 13:51:00;;;;;;;;;;;;;;;21.48;48.08;100935.06;7282612;19;154439;-57
2022/10/16 13:53:27;;;;;;;;;;;;;;;21.47;47.90;100933.41;7283857;19;151760;-57
2022/10/16 13:55:53;;;;;;;;;;;;;;;21.47;48.05;100936.22;7279178;19;154616;-58
2022/10/16 13:58:20;;;;;;;;;;;;;;;21.47;48.07;100938.19;7283134;19;153440;-58
2022/10/16 14:01:01;;;;;;;;;;;;;;;21.47;47.94;100932.56;7283412;19;152057;-57
2022/10/16 14:03:29;;;;;;;;;;;;;;;21.46;47.90;100945.78;7288815;19;151923;-57
2022/10/16 14:05:57;;;;;;;;;;;;;;;21.45;48.10;100946.94;7282817;19;152113;-57
2022/10/16 14:08:26;;;;;;;;;;;;;;;21.45;47.96;100946.94;7284072;19;154246;-59
2022/10/16 14:10:54;;;;;;;;;;;;;;;21.46;48.27;100954.22;7278957;19;154706;-57
2022/10/16 14:13:42;;;;;;;;;;;;;;;21.47;47.78;100943.81;7280927;19;152969;-57
2022/10/16 14:16:10;;;;;;;;;;;;;;;21.46;48.09;100950.56;7281656;19;152846;-57
2022/10/16 14:18:38;;;;;;;;;;;;;;;21.47;48.02;100949.44;7283351;19;153217;-58
2022/10/16 14:21:06;;;;;;;;;;;;;;;21.46;47.95;100942.97;7283165;19;152661;-57
2022/10/16 14:23:38;;;;;;;;;;;;;;;21.46;48.37;100934.53;7283694;19;152443;-57
2022/10/16 14:26:15;;;;;;;;;;;;;;;21.46;48.18;100942.13;7285360;19;153602;-57
2022/10/16 14:28:44;;;;;;;;;;;;;;;21.47;48.27;100933.41;7282404;19;153487;-57
2022/10/16 14:31:26;;;;;;;;;;;;;;;21.49;48.52;100939.53;7281464;19;154099;-57
2022/10/16 14:33:53;;;;;;;;;;;;;;;21.49;48.42;100933.91;7280551;19;151956;-57
2022/10/16 14:36:21;;;;;;;;;;;;;;;21.51;48.69;100936.41;7280949;19;152108;-57
2022/10/16 14:39:09;;;;;;;;;;;;;;;21.53;48.95;100937.75;7281646;19;152165;-57
2022/10/16 14:41:53;;;;;;;;;;;;;;;21.54;48.91;100939.41;7277509;19;152097;-57
2022/10/16 14:44:33;;;;;;;;;;;;;;;21.58;49.09;100942.41;7282137;19;152009;-58
2022/10/16 14:47:12;;;;;;;;;;;;;;;21.60;48.82;100940.13;7282253;19;152697;-57
2022/10/16 14:49:41;;;;;;;;;;;;;;;21.62;48.91;100937.84;7288155;19;152753;-57
2022/10/16 14:52:12;;;;;;;;;;;;;;;21.63;48.57;100942.31;7281881;19;153596;-58
2022/10/16 14:54:48;;;;;;;;;;;;;;;21.63;48.72;100934.72;7276402;19;152022;-58
2022/10/16 14:57:17;;;;;;;;;;;;;;;21.64;48.96;100933.56;7281966;19;154305;-58
2022/10/16 14:59:45;;;;;;;;;;;;;;;21.67;48.76;100932.09;7279914;19;153794;-58
2022/10/16 15:02:25;;;;;;;;;;;;;;;21.69;48.50;100941.06;7279958;19;151943;-58
2022/10/16 15:04:52;;;;;;;;;;;;;;;21.70;48.82;100946.38;7282396;19;153116;-58
2022/10/16 15:07:18;;;;;;;;;;;;;;;21.70;48.87;100943.56;7279215;19;153999;-58
2022/10/16 15:09:45;;;;;;;;;;;;;;;21.70;48.41;100943.56;7278452;19;152045;-58
2022/10/16 15:12:15;;;;;;;;;;;;;;;21.73;48.92;100951.34;7288273;19;153391;-58
2022/10/16 15:14:41;;;;;;;;;;;;;;;21.76;48.84;100951.88;7278609;19;151980;-58
2022/10/16 15:17:09;;;;;;;;;;;;;;;21.74;48.45;100961.47;7281820;19;153624;-58
2022/10/16 15:19:36;;;;;;;;;;;;;;;21.76;48.84;100951.88;7279953;19;153913;-58
2022/10/16 15:22:03;;;;;;;;;;;;;;;21.77;48.65;100954.34;7280355;19;152688;-58
2022/10/16 15:24:30;;;;;;;;;;;;;;;21.77;48.58;100948.72;7279031;19;154002;-58
2022/10/16 15:26:56;;;;;;;;;;;;;;;21.79;48.42;100951.25;7279945;19;154433;-58
2022/10/16 15:29:23;;;;;;;;;;;;;;;21.78;48.64;100941.97;7281952;19;152691;-58
2022/10/16 15:31:52;;;;;;;;;;;;;;;21.80;48.76;100936.03;7281751;19;151748;-58
2022/10/16 15:34:20;;;;;;;;;;;;;;;21.79;48.56;100929.56;7285790;19;153334;-57
2022/10/16 15:36:46;;;;;;;;;;;;;;;21.81;48.64;100926.41;7278971;19;152819;-58
2022/10/16 15:39:17;;;;;;;;;;;;;;;21.82;48.50;100925.28;7282842;19;154376;-58
2022/10/16 15:41:53;;;;;;;;;;;;;;;21.81;48.32;100913.19;7285154;19;152540;-58
2022/10/16 15:44:25;;;;;;;;;;;;;;;21.82;48.72;100914.03;7287043;19;152700;-58
2022/10/16 15:46:54;;;;;;;;;;;;;;;21.82;48.79;100906.41;7287143;19;153945;-58
2022/10/16 15:49:21;;;;;;;;;;;;;;;21.83;48.83;100896.84;7287107;19;151997;-57
2022/10/16 15:51:53;;;;;;;;;;;;;;;21.83;48.70;100890.38;7288346;19;153198;-58
2022/10/16 15:54:22;;;;;;;;;;;;;;;21.82;48.42;100900.78;7288306;19;152951;-58
2022/10/16 15:56:50;;;;;;;;;;;;;;;21.82;48.52;100911.22;7285380;19;153080;-57